Time;durP1;ratioP1;P1;durP2;ratioP2;P2;SDS_P1;SDS_P2;PMS_P1;PMS_P2;Temp;Humidity;BMP_temperature;BMP_pressure;BME280_temperature;BME280_humidity;BME280_pressure;Samples;Min_cycle;Max_cycle;Signal;HPM_P1;HPM_P2
2024/01/06 00:01:20;;;;;;;5.10;2.40;;;;;;;5.57;100.00;96881.97;5112812;28;20662;-74
2024/01/06 00:03:47;;;;;;;5.47;2.40;;;;;;;5.59;100.00;96882.53;5113525;28;20566;-74
2024/01/06 00:06:16;;;;;;;3.40;2.43;;;;;;;5.59;100.00;96890.44;5113668;28;20570;-74
2024/01/06 00:08:42;;;;;;;7.37;3.03;;;;;;;5.58;100.00;96894.94;5113902;28;20226;-74
2024/01/06 00:11:10;;;;;;;4.40;2.73;;;;;;;5.57;100.00;96897.78;5113841;28;20340;-74
2024/01/06 00:13:39;;;;;;;5.10;2.97;;;;;;;5.57;100.00;96893.31;5113995;28;20256;-74
2024/01/06 00:16:08;;;;;;;5.00;2.60;;;;;;;5.58;100.00;96894.13;5113954;28;20207;-74
2024/01/06 00:18:39;;;;;;;4.33;2.93;;;;;;;5.56;100.00;96893.53;5113405;28;20572;-74
2024/01/06 00:21:06;;;;;;;5.13;2.47;;;;;;;5.57;100.00;96901.22;5113899;28;20310;-74
2024/01/06 00:23:35;;;;;;;6.07;2.63;;;;;;;5.58;100.00;96899.38;5113612;28;20275;-75
2024/01/06 00:26:02;;;;;;;9.20;3.00;;;;;;;5.56;100.00;96898.81;5113862;28;20207;-75
2024/01/06 00:28:28;;;;;;;4.50;2.37;;;;;;;5.56;100.00;96899.59;5113483;28;20786;-75
2024/01/06 00:30:54;;;;;;;4.30;2.30;;;;;;;5.61;100.00;96902.41;5113324;28;20732;-74
2024/01/06 00:33:23;;;;;;;4.07;2.20;;;;;;;5.60;100.00;96905.25;5113414;28;20210;-74
2024/01/06 00:35:50;;;;;;;4.53;2.60;;;;;;;5.58;100.00;96904.66;5113395;28;20576;-74
2024/01/06 00:38:16;;;;;;;4.63;2.20;;;;;;;5.56;100.00;96904.88;5113778;28;20195;-74
2024/01/06 00:40:43;;;;;;;5.43;2.47;;;;;;;5.46;100.00;96909.00;5113309;28;20238;-74
2024/01/06 00:43:10;;;;;;;4.10;2.33;;;;;;;5.48;100.00;96905.13;5113405;28;20199;-74
2024/01/06 00:45:36;;;;;;;5.13;2.10;;;;;;;5.47;100.00;96903.53;5113362;28;20211;-74
2024/01/06 00:48:03;;;;;;;5.07;2.30;;;;;;;5.41;100.00;96903.56;5113464;28;20219;-74
2024/01/06 00:50:29;;;;;;;3.13;2.00;;;;;;;5.38;100.00;96911.94;5113218;28;20229;-74
2024/01/06 00:52:58;;;;;;;2.70;1.67;;;;;;;5.34;100.00;96910.75;5113614;28;20285;-74
2024/01/06 00:55:25;;;;;;;3.50;1.67;;;;;;;5.35;100.00;96921.06;5113256;28;20242;-74
2024/01/06 00:57:52;;;;;;;2.03;1.40;;;;;;;5.32;100.00;96924.13;5113265;28;20576;-74
2024/01/06 01:00:19;;;;;;;4.20;1.97;;;;;;;5.32;100.00;96920.66;5113135;28;20773;-75
2024/01/06 01:02:47;;;;;;;4.67;1.93;;;;;;;5.28;100.00;96922.09;5113399;28;20203;-75
2024/01/06 01:05:14;;;;;;;4.00;1.57;;;;;;;5.35;100.00;96930.78;5113157;28;20256;-75
2024/01/06 01:07:41;;;;;;;4.57;1.70;;;;;;;5.32;100.00;96936.47;5113149;28;20588;-74
2024/01/06 01:10:08;;;;;;;4.07;1.57;;;;;;;5.33;100.00;96930.22;5113384;28;20223;-74
2024/01/06 01:12:35;;;;;;;4.47;1.30;;;;;;;5.27;100.00;96931.03;5115971;28;20203;-74
2024/01/06 01:15:01;;;;;;;4.53;2.00;;;;;;;5.33;100.00;96938.13;5116785;28;20203;-74
2024/01/06 01:17:28;;;;;;;3.00;1.17;;;;;;;5.34;100.00;96939.72;5116979;28;20289;-74
2024/01/06 01:19:54;;;;;;;3.17;1.57;;;;;;;5.42;100.00;96942.09;5116636;28;20714;-74
2024/01/06 01:22:21;;;;;;;3.30;1.37;;;;;;;5.35;100.00;96941.34;5116446;28;20665;-74
2024/01/06 01:24:47;;;;;;;2.37;1.10;;;;;;;5.35;100.00;96944.78;5116882;28;20207;-74
2024/01/06 01:27:13;;;;;;;7.33;1.60;;;;;;;5.33;100.00;96949.44;5116451;28;20712;-74
2024/01/06 01:29:40;;;;;;;3.77;1.33;;;;;;;5.30;100.00;96941.94;5116463;28;20238;-74
2024/01/06 01:32:07;;;;;;;6.03;1.37;;;;;;;5.29;100.00;96944.81;5116406;28;20210;-74
2024/01/06 01:34:33;;;;;;;4.57;1.33;;;;;;;5.33;100.00;96952.09;5116740;28;20205;-74
2024/01/06 01:37:00;;;;;;;4.93;1.10;;;;;;;5.33;100.00;96956.56;5116299;28;20674;-74
2024/01/06 01:39:29;;;;;;;3.80;1.43;;;;;;;5.35;100.00;96954.50;5116625;28;20331;-74
2024/01/06 01:41:58;;;;;;;2.57;1.17;;;;;;;5.34;100.00;96956.31;5116148;28;20229;-74
2024/01/06 01:44:26;;;;;;;5.90;1.30;;;;;;;5.30;100.00;96962.25;5116172;28;20203;-74
2024/01/06 01:46:52;;;;;;;4.47;1.60;;;;;;;5.30;100.00;96962.25;5116585;28;20213;-74
2024/01/06 01:49:19;;;;;;;3.03;1.03;;;;;;;5.33;100.00;96962.63;5116011;27;20234;-74
2024/01/06 01:51:46;;;;;;;3.43;1.37;;;;;;;5.36;100.00;96964.84;5116371;28;20205;-74
2024/01/06 01:54:13;;;;;;;5.23;1.30;;;;;;;5.30;100.00;96964.88;5116031;28;20741;-74
2024/01/06 01:56:44;;;;;;;4.07;1.30;;;;;;;5.30;100.00;96967.50;5115942;28;20290;-74
2024/01/06 01:59:16;;;;;;;2.20;1.23;;;;;;;5.32;100.00;96966.28;5116121;27;20763;-74
2024/01/06 02:01:43;;;;;;;5.07;1.33;;;;;;;5.30;100.00;96965.66;5115870;28;20184;-74
2024/01/06 02:04:11;;;;;;;3.13;1.00;;;;;;;5.28;100.00;96966.91;5115774;28;20257;-75
2024/01/06 02:06:37;;;;;;;8.03;1.37;;;;;;;5.27;100.00;96973.19;5115754;28;20291;-75
2024/01/06 02:09:05;;;;;;;6.03;1.50;;;;;;;5.24;100.00;96974.44;5115860;28;20590;-75
2024/01/06 02:11:32;;;;;;;3.27;1.20;;;;;;;5.27;100.00;96974.00;5116022;28;20260;-75
2024/01/06 02:14:00;;;;;;;3.93;1.33;;;;;;;5.28;100.00;96974.81;5115516;28;20207;-75
2024/01/06 02:16:28;;;;;;;3.73;1.43;;;;;;;5.27;100.00;96975.84;5115845;28;20260;-75
2024/01/06 02:18:57;;;;;;;3.00;1.30;;;;;;;5.24;100.00;96981.53;5115374;28;20231;-75
2024/01/06 02:21:25;;;;;;;3.00;1.40;;;;;;;5.20;100.00;96978.50;5115070;28;20218;-75
2024/01/06 02:23:54;;;;;;;4.97;1.77;;;;;;;5.18;100.00;96982.38;5114934;28;20278;-75
2024/01/06 02:26:21;;;;;;;3.43;1.53;;;;;;;5.21;100.00;96988.00;5115651;28;20199;-75
2024/01/06 02:28:49;;;;;;;3.33;1.30;;;;;;;5.16;100.00;96987.84;5115131;28;20306;-74
2024/01/06 02:31:15;;;;;;;5.40;1.70;;;;;;;5.15;100.00;96991.50;5115280;27;20662;-74
2024/01/06 02:33:44;;;;;;;2.07;0.97;;;;;;;5.26;100.00;96997.94;5115530;28;20567;-74
2024/01/06 02:36:11;;;;;;;3.53;1.40;;;;;;;5.22;100.00;96989.66;5115010;28;20314;-74
2024/01/06 02:38:40;;;;;;;5.73;1.30;;;;;;;5.25;100.00;96991.84;5115071;28;20195;-74
2024/01/06 02:41:11;;;;;;;5.70;1.40;;;;;;;5.34;100.00;96995.06;5115363;28;20300;-74
2024/01/06 02:43:37;;;;;;;5.00;1.07;;;;;;;5.32;100.00;96997.91;5115636;28;20291;-74
2024/01/06 02:46:04;;;;;;;4.23;1.50;;;;;;;5.31;100.00;96998.94;5115043;28;20260;-74
2024/01/06 02:48:31;;;;;;;3.13;1.33;;;;;;;5.26;100.00;97001.38;5114858;28;20629;-74
2024/01/06 02:50:59;;;;;;;4.83;1.53;;;;;;;5.36;100.00;96995.63;5114865;27;20226;-74
2024/01/06 02:53:26;;;;;;;2.80;1.43;;;;;;;5.42;100.00;96994.81;5114816;28;20225;-74
2024/01/06 02:55:54;;;;;;;4.77;1.40;;;;;;;5.33;100.00;96988.19;5114669;28;20238;-74
2024/01/06 02:58:22;;;;;;;3.73;1.47;;;;;;;5.32;100.00;96990.00;5114822;28;20561;-74
2024/01/06 03:00:51;;;;;;;3.17;1.33;;;;;;;5.33;100.00;97004.00;5114607;28;20697;-75
2024/01/06 03:03:19;;;;;;;4.07;1.13;;;;;;;5.37;100.00;97000.69;5114918;28;20203;-75
2024/01/06 03:05:49;;;;;;;3.60;1.30;;;;;;;5.29;100.00;97015.97;5114969;28;20199;-75
2024/01/06 03:08:18;;;;;;;5.23;1.37;;;;;;;5.29;100.00;97008.06;5114331;28;20254;-75
2024/01/06 03:10:46;;;;;;;8.67;1.57;;;;;;;5.20;100.00;97004.84;5114232;28;20268;-75
2024/01/06 03:13:15;;;;;;;4.27;1.20;;;;;;;5.20;100.00;96998.78;5114443;28;20203;-74
2024/01/06 03:15:43;;;;;;;2.93;1.27;;;;;;;5.16;100.00;97000.22;5114416;28;20238;-74
2024/01/06 03:18:09;;;;;;;5.00;1.30;;;;;;;5.12;100.00;97002.47;5114288;28;20294;-74
2024/01/06 03:20:40;;;;;;;8.10;1.63;;;;;;;5.14;100.00;97015.41;5114146;28;20223;-74
2024/01/06 03:23:12;;;;;;;3.27;1.27;;;;;;;5.07;100.00;97009.38;5114433;28;20306;-74
2024/01/06 03:25:47;;;;;;;4.00;1.40;;;;;;;5.08;100.00;97005.72;5113846;28;20282;-74
2024/01/06 03:28:17;;;;;;;3.03;1.50;;;;;;;5.02;100.00;97002.09;5114035;27;20211;-74
2024/01/06 03:30:51;;;;;;;3.63;1.27;;;;;;;5.03;100.00;97003.75;5114256;28;20717;-74
2024/01/06 03:33:21;;;;;;;2.87;1.20;;;;;;;5.04;100.00;97004.53;5113798;28;20195;-74
2024/01/06 03:35:49;;;;;;;5.17;1.50;;;;;;;5.03;100.00;97008.19;5114068;28;20278;-74
2024/01/06 03:38:21;;;;;;;3.63;1.57;;;;;;;4.93;100.00;96999.94;5114013;28;20572;-74
2024/01/06 03:40:50;;;;;;;2.00;1.20;;;;;;;4.93;100.00;97000.72;5114151;28;20273;-74
2024/01/06 03:43:20;;;;;;;3.73;1.43;;;;;;;5.06;100.00;97002.50;5114851;28;20205;-74
2024/01/06 03:45:52;;;;;;;3.90;1.23;;;;;;;5.01;100.00;96991.75;5113966;28;20252;-74
2024/01/06 03:48:28;;;;;;;3.13;1.23;;;;;;;5.01;100.00;96991.75;5113689;28;20397;-74
2024/01/06 03:50:57;;;;;;;3.77;1.33;;;;;;;5.03;100.00;96992.38;5114077;28;20231;-74
2024/01/06 03:53:27;;;;;;;4.13;1.53;;;;;;;5.02;100.00;96994.19;5113750;28;20207;-74
2024/01/06 03:56:00;;;;;;;3.47;1.50;;;;;;;5.05;100.00;97000.88;5113688;28;20213;-75
2024/01/06 03:58:27;;;;;;;2.57;1.20;;;;;;;5.06;100.00;96997.25;5113849;28;20194;-75
2024/01/06 04:00:58;;;;;;;5.80;1.60;;;;;;;5.01;100.00;96999.66;5113481;28;20244;-75
2024/01/06 04:03:29;;;;;;;2.77;1.27;;;;;;;4.98;100.00;97008.00;5113382;28;20232;-75
2024/01/06 04:05:58;;;;;;;4.57;1.60;;;;;;;5.00;100.00;97004.16;5113520;28;20195;-74
2024/01/06 04:08:26;;;;;;;4.90;1.53;;;;;;;4.95;100.00;96998.69;5113402;28;20326;-74
2024/01/06 04:10:57;;;;;;;2.67;1.27;;;;;;;4.94;100.00;97010.25;5113441;28;20234;-75
2024/01/06 04:13:26;;;;;;;4.70;1.70;;;;;;;4.94;100.00;97010.25;5114348;28;20621;-75
2024/01/06 04:15:57;;;;;;;5.63;1.43;;;;;;;4.93;100.00;97007.81;5113530;28;20741;-75
2024/01/06 04:18:28;;;;;;;7.50;1.37;;;;;;;4.94;100.00;97012.06;5113525;28;20271;-75
2024/01/06 04:20:58;;;;;;;3.90;1.40;;;;;;;4.94;100.00;97022.59;5113475;28;20725;-75
2024/01/06 04:23:27;;;;;;;4.07;1.50;;;;;;;4.95;100.00;97011.06;5113655;28;20727;-75
2024/01/06 04:25:56;;;;;;;2.93;1.27;;;;;;;4.89;100.00;97017.16;5113318;28;20204;-75
2024/01/06 04:28:24;;;;;;;3.70;1.20;;;;;;;4.93;100.00;97023.63;5113273;28;20233;-75
2024/01/06 04:30:57;;;;;;;4.07;1.33;;;;;;;4.95;100.00;97025.03;5113099;28;20303;-75
2024/01/06 04:33:24;;;;;;;4.23;1.67;;;;;;;4.87;100.00;97025.25;5113310;28;20657;-75
2024/01/06 04:35:51;;;;;;;2.90;1.27;;;;;;;4.99;100.00;97020.16;5113379;28;20203;-75
2024/01/06 04:38:18;;;;;;;2.77;1.20;;;;;;;4.96;100.00;97024.00;5113679;28;20199;-75
2024/01/06 04:40:47;;;;;;;3.63;1.13;;;;;;;4.91;100.00;97028.28;5113451;28;20219;-75
2024/01/06 04:43:13;;;;;;;2.40;1.27;;;;;;;4.93;100.00;97027.06;5113097;28;20204;-75
2024/01/06 04:45:40;;;;;;;4.40;1.23;;;;;;;4.88;100.00;97029.50;5113427;28;20199;-75
2024/01/06 04:48:09;;;;;;;5.30;1.40;;;;;;;4.86;100.00;97025.47;5116797;28;20566;-75
2024/01/06 04:50:36;;;;;;;4.07;1.50;;;;;;;4.85;100.00;97023.84;5117056;28;20219;-75
2024/01/06 04:53:02;;;;;;;4.97;1.20;;;;;;;4.82;100.00;97021.63;5117171;28;20236;-74
2024/01/06 04:55:28;;;;;;;5.10;1.30;;;;;;;4.95;100.00;97025.03;5118592;28;20207;-74
2024/01/06 04:57:55;;;;;;;4.93;1.30;;;;;;;4.94;100.00;97036.59;5117069;28;20673;-74
2024/01/06 05:00:21;;;;;;;2.13;1.10;;;;;;;4.93;100.00;97034.16;5117048;28;20607;-74
2024/01/06 05:02:48;;;;;;;3.93;1.40;;;;;;;4.85;100.00;97039.66;5117097;27;20669;-74
2024/01/06 05:05:14;;;;;;;4.50;1.43;;;;;;;4.93;100.00;97036.78;5117172;28;20209;-74
2024/01/06 05:07:40;;;;;;;2.57;1.10;;;;;;;4.83;100.00;97036.41;5116829;28;20210;-74
2024/01/06 05:10:08;;;;;;;2.30;1.10;;;;;;;4.80;100.00;97044.72;5116712;28;20231;-74
2024/01/06 05:12:34;;;;;;;2.40;1.33;;;;;;;4.75;100.00;97042.72;5116927;28;20209;-74
2024/01/06 05:15:00;;;;;;;4.30;1.30;;;;;;;4.79;100.00;97051.03;5116513;28;20214;-74
2024/01/06 05:17:27;;;;;;;2.90;1.10;;;;;;;4.80;100.00;97050.00;5116572;28;20666;-74
2024/01/06 05:19:53;;;;;;;4.33;1.10;;;;;;;4.77;100.00;97058.31;5117311;28;20222;-74
2024/01/06 05:22:19;;;;;;;2.87;1.30;;;;;;;4.78;100.00;97044.94;5116464;28;20215;-74
2024/01/06 05:24:46;;;;;;;3.00;1.10;;;;;;;4.82;100.00;97055.84;5116820;28;20199;-74
2024/01/06 05:27:12;;;;;;;4.23;1.43;;;;;;;4.82;100.00;97053.22;5116908;28;20249;-74
2024/01/06 05:29:39;;;;;;;3.93;1.40;;;;;;;4.88;100.00;97055.84;5116407;28;20227;-74
2024/01/06 05:32:05;;;;;;;5.00;1.50;;;;;;;4.84;100.00;97049.38;5116455;28;20681;-74
2024/01/06 05:34:31;;;;;;;2.13;1.30;;;;;;;4.83;100.00;97063.56;5116313;28;20210;-75
2024/01/06 05:36:58;;;;;;;7.37;1.60;;;;;;;4.82;100.00;97069.84;5116303;28;20214;-75
2024/01/06 05:39:25;;;;;;;2.67;1.33;;;;;;;4.85;100.00;97065.97;5116143;28;20728;-74
2024/01/06 05:41:51;;;;;;;4.23;1.60;;;;;;;4.84;100.00;97069.63;5116427;28;20260;-74
2024/01/06 05:44:17;;;;;;;7.87;1.50;;;;;;;4.80;100.00;97066.59;5116034;28;20252;-74
2024/01/06 05:46:44;;;;;;;3.57;1.93;;;;;;;4.79;100.00;97061.56;5116083;28;20211;-74
2024/01/06 05:49:11;;;;;;;5.30;1.50;;;;;;;4.78;100.00;97065.19;5116285;28;20229;-74
2024/01/06 05:51:37;;;;;;;3.70;1.90;;;;;;;4.81;100.00;97078.75;5116349;28;20290;-74
2024/01/06 05:54:04;;;;;;;3.60;1.67;;;;;;;4.81;100.00;97076.13;5116284;28;20224;-74
2024/01/06 05:56:30;;;;;;;3.50;1.47;;;;;;;4.77;100.00;97079.38;5116257;28;20210;-74
2024/01/06 05:58:57;;;;;;;3.20;1.40;;;;;;;4.78;100.00;97081.78;5115027;28;20198;-74
2024/01/06 06:01:23;;;;;;;2.37;1.30;;;;;;;4.75;100.00;97084.84;5116130;28;20225;-74
2024/01/06 06:03:50;;;;;;;6.07;1.60;;;;;;;4.74;100.00;97087.69;5116089;28;20203;-74
2024/01/06 06:06:17;;;;;;;4.00;1.93;;;;;;;4.78;100.00;97102.03;5115896;28;20210;-74
2024/01/06 06:08:43;;;;;;;3.10;1.53;;;;;;;4.92;100.00;97107.06;5115631;27;20230;-74
2024/01/06 06:11:11;;;;;;;2.03;1.47;;;;;;;4.92;100.00;97112.34;5115873;28;20632;-74
2024/01/06 06:13:41;;;;;;;3.77;1.50;;;;;;;4.93;100.00;97115.78;5115928;28;20207;-74
2024/01/06 06:16:10;;;;;;;2.67;1.60;;;;;;;4.85;100.00;97116.00;5115859;28;20238;-74
2024/01/06 06:18:36;;;;;;;3.63;1.60;;;;;;;4.93;100.00;97119.22;5115638;28;20681;-74
2024/01/06 06:21:03;;;;;;;3.80;1.50;;;;;;;4.86;100.00;97112.34;5115280;28;20725;-74
2024/01/06 06:23:29;;;;;;;5.00;1.70;;;;;;;4.92;100.00;97122.88;5115448;28;20629;-74
2024/01/06 06:25:56;;;;;;;3.70;2.00;;;;;;;4.90;100.00;97114.38;5115653;28;20211;-74
2024/01/06 06:28:22;;;;;;;4.43;1.63;;;;;;;4.96;100.00;97123.28;5115244;28;20203;-74
2024/01/06 06:30:49;;;;;;;5.57;2.00;;;;;;;4.84;100.00;97120.47;5115351;28;20230;-74
2024/01/06 06:33:15;;;;;;;3.37;1.50;;;;;;;4.83;100.00;97125.91;5115573;28;20210;-74
2024/01/06 06:35:42;;;;;;;2.57;1.70;;;;;;;4.91;100.00;97125.72;5115071;28;20680;-74
2024/01/06 06:38:08;;;;;;;2.77;1.53;;;;;;;4.83;100.00;97132.00;5115172;28;20550;-74
2024/01/06 06:40:35;;;;;;;2.60;1.53;;;;;;;4.80;100.00;97134.25;5115268;28;20219;-74
2024/01/06 06:43:01;;;;;;;2.43;1.47;;;;;;;4.79;100.00;97133.44;5115312;28;20214;-74
2024/01/06 06:45:27;;;;;;;4.73;1.50;;;;;;;4.83;100.00;97139.91;5115269;28;20199;-74
2024/01/06 06:47:54;;;;;;;4.93;1.77;;;;;;;4.83;100.00;97139.91;5115232;28;20199;-74
2024/01/06 06:50:20;;;;;;;5.43;1.50;;;;;;;4.86;100.00;97146.59;5115090;28;20235;-74
2024/01/06 06:52:47;;;;;;;2.13;1.43;;;;;;;4.93;100.00;97147.41;5114791;28;20662;-74
2024/01/06 06:55:13;;;;;;;4.77;1.43;;;;;;;4.91;100.00;97142.34;5115094;28;20214;-74
2024/01/06 06:57:40;;;;;;;2.93;1.30;;;;;;;5.00;100.00;97142.91;5114769;28;20544;-74
2024/01/06 07:00:07;;;;;;;3.07;1.50;;;;;;;4.94;100.00;97151.66;5114663;28;20227;-74
2024/01/06 07:02:34;;;;;;;4.73;1.80;;;;;;;4.98;100.00;97151.00;5114696;28;20661;-74
2024/01/06 07:05:01;;;;;;;2.83;1.60;;;;;;;4.93;100.00;97152.66;5114970;27;20324;-74
2024/01/06 07:07:27;;;;;;;6.00;1.60;;;;;;;4.90;100.00;97159.16;5114868;28;20205;-74
2024/01/06 07:09:53;;;;;;;2.33;1.30;;;;;;;4.91;100.00;97159.94;5114365;28;20231;-74
2024/01/06 07:12:20;;;;;;;2.43;1.27;;;;;;;4.92;100.00;97167.66;5114863;28;20304;-74
2024/01/06 07:14:47;;;;;;;2.97;1.20;;;;;;;4.94;100.00;97168.28;5114772;28;20208;-74
2024/01/06 07:17:13;;;;;;;2.37;1.23;;;;;;;4.98;100.00;97163.41;5114702;28;20564;-74
2024/01/06 07:19:39;;;;;;;1.67;1.53;;;;;;;4.95;100.00;97161.97;5114559;28;20226;-74
2024/01/06 07:22:06;;;;;;;3.83;1.30;;;;;;;4.91;100.00;97170.47;5114379;28;20219;-74
2024/01/06 07:24:32;;;;;;;2.10;1.27;;;;;;;4.93;100.00;97168.47;5114624;28;20209;-74
2024/01/06 07:26:58;;;;;;;5.83;1.40;;;;;;;4.94;100.00;97172.72;5114546;28;20203;-74
2024/01/06 07:29:25;;;;;;;1.63;1.00;;;;;;;4.94;100.00;97170.09;5114411;28;20309;-74
2024/01/06 07:31:51;;;;;;;2.13;1.07;;;;;;;5.00;100.00;97180.59;5114213;28;20207;-74
2024/01/06 07:34:18;;;;;;;2.93;1.27;;;;;;;5.00;100.00;97174.50;5114393;28;20285;-74
2024/01/06 07:36:47;;;;;;;2.53;1.37;;;;;;;5.04;100.00;97178.38;5114035;28;20304;-75
2024/01/06 07:39:14;;;;;;;1.53;1.03;;;;;;;5.04;100.00;97181.81;5113643;28;20226;-74
2024/01/06 07:41:40;;;;;;;4.07;1.10;;;;;;;5.09;100.00;97179.38;5114234;28;20199;-74
2024/01/06 07:44:06;;;;;;;3.17;1.10;;;;;;;5.11;100.00;97187.06;5114191;28;20210;-74
2024/01/06 07:46:33;;;;;;;1.00;0.60;;;;;;;5.19;100.00;97187.66;5115076;28;20301;-74
2024/01/06 07:48:59;;;;;;;2.27;0.90;;;;;;;5.19;100.00;97186.84;5114405;28;20230;-74
2024/01/06 07:51:26;;;;;;;1.70;1.00;;;;;;;5.22;100.00;97186.44;5114074;28;20203;-74
2024/01/06 07:53:53;;;;;;;1.00;0.90;;;;;;;5.26;100.00;97187.66;5114032;28;20206;-74
2024/01/06 07:56:19;;;;;;;2.13;1.00;;;;;;;5.29;100.00;97184.59;5113750;28;20203;-74
2024/01/06 07:58:46;;;;;;;3.73;0.70;;;;;;;5.24;100.00;97189.69;5113743;28;20565;-74
2024/01/06 08:01:13;;;;;;;2.23;0.90;;;;;;;5.22;100.00;97181.16;5113587;28;20231;-74
2024/01/06 08:03:39;;;;;;;1.20;0.70;;;;;;;5.22;100.00;97189.06;5113918;28;20221;-74
2024/01/06 08:06:06;;;;;;;3.13;1.00;;;;;;;5.19;100.00;97187.66;5113845;28;20204;-74
2024/01/06 08:08:32;;;;;;;2.83;1.00;;;;;;;5.25;100.00;97183.41;5113918;28;20213;-76
2024/01/06 08:10:58;;;;;;;1.53;0.80;;;;;;;5.28;100.00;97198.78;5113603;28;20228;-75
2024/01/06 08:13:25;;;;;;;3.07;1.20;;;;;;;5.28;100.00;97188.22;5113813;28;20199;-75
2024/01/06 08:15:51;;;;;;;1.87;1.10;;;;;;;5.31;100.00;97193.94;5113798;28;20203;-75
2024/01/06 08:18:19;;;;;;;4.33;1.20;;;;;;;5.32;100.00;97190.25;5113733;28;20571;-75
2024/01/06 08:20:45;;;;;;;2.03;1.00;;;;;;;5.34;100.00;97190.06;5113614;28;20272;-75
2024/01/06 08:23:12;;;;;;;3.03;1.37;;;;;;;5.40;100.00;97194.50;5117187;28;20206;-75
2024/01/06 08:25:38;;;;;;;2.17;1.30;;;;;;;5.47;100.00;97196.09;5117819;28;20199;-75
2024/01/06 08:28:05;;;;;;;3.13;1.07;;;;;;;5.44;100.00;97195.69;5117950;28;20209;-75
2024/01/06 08:30:31;;;;;;;1.40;0.73;;;;;;;5.50;100.00;97202.78;5117887;28;20233;-75
2024/01/06 08:32:59;;;;;;;1.63;0.90;;;;;;;5.47;100.00;97208.47;5117686;28;20209;-75
2024/01/06 08:35:25;;;;;;;1.77;1.00;;;;;;;5.52;100.00;97206.03;5117739;28;20199;-75
2024/01/06 08:37:51;;;;;;;2.47;1.00;;;;;;;5.55;100.00;97211.69;5117569;28;20199;-75
2024/01/06 08:40:18;;;;;;;2.13;1.00;;;;;;;5.61;100.00;97208.22;5117205;28;20215;-75
2024/01/06 08:42:44;;;;;;;2.30;0.70;;;;;;;5.66;100.00;97207.59;5116945;28;20683;-75
2024/01/06 08:45:11;;;;;;;1.63;1.10;;;;;;;5.70;100.00;97214.06;5117413;28;20207;-75
2024/01/06 08:47:38;;;;;;;1.30;0.87;;;;;;;5.71;100.00;97218.31;5117511;28;20295;-75
2024/01/06 08:50:05;;;;;;;2.30;0.93;;;;;;;5.78;100.00;97216.47;5116970;28;20225;-75
2024/01/06 08:52:31;;;;;;;3.43;1.10;;;;;;;5.84;100.00;97218.31;5117399;28;20280;-75
2024/01/06 08:54:58;;;;;;;1.37;0.80;;;;;;;5.84;100.00;97216.47;5117333;28;20206;-75
2024/01/06 08:57:24;;;;;;;1.10;0.80;;;;;;;5.84;100.00;97220.94;5117306;28;20218;-75
2024/01/06 08:59:50;;;;;;;1.73;0.90;;;;;;;5.91;100.00;97227.00;5117108;28;20219;-75
2024/01/06 09:02:17;;;;;;;1.53;1.10;;;;;;;6.05;100.00;97225.91;5117145;28;20199;-75
2024/01/06 09:04:43;;;;;;;1.80;1.13;;;;;;;5.98;100.00;97227.78;5117873;28;20203;-75
2024/01/06 09:07:09;;;;;;;2.93;1.00;;;;;;;5.92;100.00;97229.41;5116961;28;20203;-75
2024/01/06 09:09:36;;;;;;;3.20;1.27;;;;;;;5.83;100.00;97228.03;5116821;28;20255;-75
2024/01/06 09:12:02;;;;;;;2.27;1.10;;;;;;;5.94;100.00;97234.50;5117074;28;20215;-75
2024/01/06 09:14:30;;;;;;;2.97;1.20;;;;;;;6.07;100.00;97237.06;5117138;28;20203;-75
2024/01/06 09:16:56;;;;;;;1.10;1.00;;;;;;;6.05;100.00;97236.47;5117050;28;20198;-75
2024/01/06 09:19:22;;;;;;;0.90;0.90;;;;;;;5.92;100.00;97237.34;5116558;28;20219;-74
2024/01/06 09:21:49;;;;;;;1.57;1.10;;;;;;;5.88;100.00;97245.88;5116543;28;20211;-74
2024/01/06 09:24:15;;;;;;;0.87;0.80;;;;;;;5.86;100.00;97240.81;5116765;28;20199;-74
2024/01/06 09:26:42;;;;;;;1.10;0.90;;;;;;;6.03;100.00;97243.78;5116703;28;20207;-75
2024/01/06 09:29:08;;;;;;;1.77;1.10;;;;;;;5.95;100.00;97252.75;5116448;28;20257;-75
2024/01/06 09:31:34;;;;;;;2.10;1.50;;;;;;;5.98;100.00;97252.31;5116286;28;20565;-75
2024/01/06 09:34:02;;;;;;;1.30;1.20;;;;;;;6.06;100.00;97252.09;5116372;28;20207;-75
2024/01/06 09:36:28;;;;;;;2.70;1.50;;;;;;;6.11;100.00;97254.91;5116684;28;20203;-75
2024/01/06 09:38:54;;;;;;;1.87;1.10;;;;;;;6.06;100.00;97265.28;5116447;28;20205;-75
2024/01/06 09:41:21;;;;;;;2.20;1.30;;;;;;;6.11;100.00;97270.72;5116284;28;20195;-75
2024/01/06 09:43:48;;;;;;;2.13;1.63;;;;;;;6.07;100.00;97266.09;5115931;28;20562;-75
2024/01/06 09:46:29;;;;;;;2.00;1.63;;;;;;;6.12;100.00;97275.00;5116278;28;20237;-75
2024/01/06 09:48:56;;;;;;;2.57;1.80;;;;;;;6.04;100.00;97282.34;5116247;28;20256;-75
2024/01/06 09:51:23;;;;;;;1.50;1.30;;;;;;;6.09;100.00;97277.25;5116526;28;20223;-75
2024/01/06 09:54:00;;;;;;;1.60;1.17;;;;;;;6.11;100.00;97280.50;5116844;28;20206;-75
2024/01/06 09:56:29;;;;;;;1.97;1.40;;;;;;;6.03;100.00;97271.00;5116179;28;20192;-75
2024/01/06 09:58:56;;;;;;;2.03;1.80;;;;;;;6.10;100.00;97270.97;5116111;27;20207;-75
2024/01/06 10:01:23;;;;;;;1.87;1.37;;;;;;;6.12;100.00;97280.28;5116071;27;20210;-75
2024/01/06 10:03:50;;;;;;;3.20;1.20;;;;;;;6.18;100.00;97268.88;5116107;28;20207;-75
2024/01/06 10:06:17;;;;;;;1.60;1.50;;;;;;;6.20;100.00;97271.31;5115857;28;20203;-75
2024/01/06 10:08:45;;;;;;;3.00;1.30;;;;;;;6.40;100.00;97272.00;5115986;28;20203;-75
2024/01/06 10:11:11;;;;;;;1.37;1.27;;;;;;;6.35;100.00;97269.22;5115692;28;20561;-75
2024/01/06 10:13:38;;;;;;;1.20;1.00;;;;;;;6.28;100.00;97276.34;5115832;28;20228;-75
2024/01/06 10:16:05;;;;;;;1.00;1.00;;;;;;;6.22;100.00;97269.25;5115717;28;20211;-75
2024/01/06 10:18:32;;;;;;;1.00;1.00;;;;;;;6.07;100.00;97271.38;5115672;28;20566;-75
2024/01/06 10:20:59;;;;;;;1.10;1.10;;;;;;;6.17;100.00;97263.81;5115636;28;20215;-75
2024/01/06 10:23:28;;;;;;;2.60;1.00;;;;;;;6.13;100.00;97263.44;5115018;28;20210;-75
2024/01/06 10:25:55;;;;;;;1.47;0.93;;;;;;;6.21;100.00;97265.03;5115465;28;20250;-75
2024/01/06 10:28:23;;;;;;;0.90;0.90;;;;;;;6.18;100.00;97268.88;5115141;28;20225;-75
2024/01/06 10:30:52;;;;;;;1.37;1.27;;;;;;;6.13;100.00;97267.88;5115111;28;20611;-75
2024/01/06 10:33:19;;;;;;;1.07;1.03;;;;;;;6.12;100.00;97274.19;5115212;28;20239;-75
2024/01/06 10:35:46;;;;;;;1.00;1.00;;;;;;;6.20;100.00;97271.31;5115406;28;20199;-75
2024/01/06 10:38:12;;;;;;;1.67;1.20;;;;;;;6.05;100.00;97273.41;5115405;28;20207;-75
2024/01/06 10:40:38;;;;;;;1.47;1.10;;;;;;;6.00;100.00;97279.31;5114727;28;20222;-75
2024/01/06 10:43:06;;;;;;;1.73;1.40;;;;;;;6.00;100.00;97273.22;5115558;28;20207;-75
2024/01/06 10:45:33;;;;;;;1.50;1.23;;;;;;;6.12;100.00;97279.47;5114569;27;20199;-75
2024/01/06 10:48:00;;;;;;;2.50;1.10;;;;;;;6.16;100.00;97284.09;5114758;28;20207;-75
2024/01/06 10:50:29;;;;;;;1.57;1.07;;;;;;;5.96;100.00;97280.75;5115184;28;20233;-75
2024/01/06 10:52:56;;;;;;;1.43;1.30;;;;;;;5.78;100.00;97274.47;5113861;28;20207;-75
2024/01/06 10:55:23;;;;;;;1.40;1.30;;;;;;;5.89;100.00;97274.66;5114916;27;20203;-75
2024/01/06 10:57:52;;;;;;;1.30;1.23;;;;;;;5.80;100.00;97265.41;5113429;28;20214;-75
2024/01/06 11:00:18;;;;;;;1.70;1.27;;;;;;;5.87;100.00;97274.09;5114918;28;20367;-75
2024/01/06 11:02:46;;;;;;;1.50;1.40;;;;;;;5.91;100.00;97275.28;5114806;28;20211;-75
2024/01/06 11:05:14;;;;;;;1.57;1.47;;;;;;;5.95;100.00;97276.50;5114916;28;20299;-75
2024/01/06 11:07:41;;;;;;;2.03;1.60;;;;;;;5.80;100.00;97270.69;5114600;28;20670;-75
2024/01/06 11:10:15;;;;;;;2.27;1.50;;;;;;;5.66;100.00;97268.25;5114659;28;20234;-75
2024/01/06 11:12:43;;;;;;;2.83;1.83;;;;;;;5.70;100.00;97261.53;5114486;27;20191;-75
2024/01/06 11:15:09;;;;;;;1.90;1.70;;;;;;;5.75;100.00;97265.16;5114641;28;20547;-75
2024/01/06 11:17:58;;;;;;;1.93;1.70;;;;;;;5.71;100.00;97261.34;5114556;27;20574;-75
2024/01/06 11:20:24;;;;;;;1.80;1.70;;;;;;;5.90;100.00;97263.13;5114486;28;20223;-75
2024/01/06 11:22:52;;;;;;;1.83;1.60;;;;;;;5.88;100.00;97261.72;5114097;28;20217;-75
2024/01/06 11:25:22;;;;;;;1.90;1.43;;;;;;;5.94;100.00;97266.16;5114315;27;20237;-75
2024/01/06 11:27:50;;;;;;;1.67;1.50;;;;;;;5.80;100.00;97264.53;5114434;28;20301;-75
2024/01/06 11:30:35;;;;;;;2.40;1.70;;;;;;;5.77;100.00;97259.69;5114257;28;20227;-75
2024/01/06 11:33:01;;;;;;;2.00;1.80;;;;;;;5.97;100.00;97263.09;5114269;28;20191;-75
2024/01/06 11:35:28;;;;;;;2.10;1.80;;;;;;;6.06;100.00;97259.22;5114344;28;20203;-75